Time;durP1;ratioP1;P1;durP2;ratioP2;P2;SDS_P1;SDS_P2;PMS_P1;PMS_P2;Temp;Humidity;BMP_temperature;BMP_pressure;BME280_temperature;BME280_humidity;BME280_pressure;Samples;Min_cycle;Max_cycle;Signal;HPM_P1;HPM_P2
2022/11/12 04:02:20;;;;;;;27.50;11.45;;;8.90;99.90;;;;;;5372182;23;95303;-86
2022/11/12 04:10:14;;;;;;;28.30;12.18;;;8.80;99.90;;;;;;4892782;28;91404;-84
2022/11/12 04:15:24;;;;;;;30.73;12.38;;;8.90;99.90;;;;;;4898886;28;91197;-85
2022/11/12 04:23:18;;;;;;;27.67;11.73;;;8.90;99.90;;;;;;4888926;28;91993;-85
2022/11/12 04:28:28;;;;;;;30.67;12.02;;;8.90;99.90;;;;;;4889953;28;91387;-86
2022/11/12 04:30:54;;;;;;;30.08;12.07;;;8.90;99.90;;;;;;4902721;28;92072;-86
2022/11/12 04:33:19;;;;;;;28.30;11.93;;;8.90;99.90;;;;;;4900133;28;92102;-88
2022/11/12 04:35:45;;;;;;;32.72;12.68;;;8.90;99.90;;;;;;4885765;28;91767;-87
2022/11/12 04:38:11;;;;;;;33.67;13.07;;;8.80;99.90;;;;;;4894757;28;90866;-86
2022/11/12 04:46:05;;;;;;;32.78;12.70;;;8.60;99.90;;;;;;4897234;28;92274;-82
2022/11/12 04:48:30;;;;;;;36.38;12.98;;;8.60;99.90;;;;;;4901385;28;92076;-83
2022/11/12 04:50:58;;;;;;;28.90;11.60;;;8.60;99.90;;;;;;4892117;28;92718;-82
2022/11/12 04:53:24;;;;;;;34.70;12.75;;;8.60;99.90;;;;;;4882742;28;92183;-83
2022/11/12 04:55:52;;;;;;;37.80;14.07;;;8.50;99.90;;;;;;4891154;28;91307;-83
2022/11/12 04:58:18;;;;;;;30.15;11.65;;;8.50;99.90;;;;;;4899830;28;91291;-84
2022/11/12 05:00:44;;;;;;;30.45;12.43;;;8.60;99.90;;;;;;4885884;28;92119;-83
2022/11/12 05:03:09;;;;;;;29.10;11.63;;;8.60;99.90;;;;;;4895261;28;91758;-84
2022/11/12 05:05:35;;;;;;;31.10;12.10;;;8.70;99.90;;;;;;4898084;28;91740;-84
2022/11/12 05:08:01;;;;;;;30.40;11.73;;;8.70;99.90;;;;;;4897004;28;91337;-85
2022/11/12 05:10:27;;;;;;;32.72;12.45;;;8.70;99.90;;;;;;4904282;28;92636;-86
2022/11/12 05:12:53;;;;;;;29.77;11.57;;;8.80;99.90;;;;;;4900837;28;93397;-84
2022/11/12 05:15:18;;;;;;;29.95;12.32;;;8.70;99.90;;;;;;4899072;28;91422;-85
2022/11/12 05:17:44;;;;;;;28.38;11.63;;;8.70;99.90;;;;;;4898899;28;91619;-83
2022/11/12 05:20:11;;;;;;;32.47;11.88;;;8.70;99.90;;;;;;4897548;28;91637;-84
2022/11/12 05:22:37;;;;;;;27.20;10.90;;;8.80;99.90;;;;;;4898512;28;91786;-83
2022/11/12 05:25:03;;;;;;;28.02;11.40;;;8.80;99.90;;;;;;4900463;28;91695;-82
2022/11/12 05:27:29;;;;;;;31.67;11.52;;;8.80;99.90;;;;;;4899457;28;90571;-82
2022/11/12 05:29:54;;;;;;;31.17;13.35;;;8.80;99.90;;;;;;4895566;28;92217;-84
2022/11/12 05:32:20;;;;;;;27.30;11.27;;;8.80;99.90;;;;;;4892362;28;91920;-83
2022/11/12 05:34:46;;;;;;;29.88;12.25;;;8.80;99.90;;;;;;4888352;28;92613;-83
2022/11/12 05:37:12;;;;;;;32.60;12.25;;;8.80;99.90;;;;;;4900253;28;92471;-82
2022/11/12 05:39:38;;;;;;;29.02;11.88;;;8.80;99.90;;;;;;4890833;28;92125;-83
2022/11/12 05:42:04;;;;;;;29.02;11.90;;;8.80;99.90;;;;;;4897245;28;91849;-83
2022/11/12 05:44:30;;;;;;;31.33;12.07;;;8.80;99.90;;;;;;4895898;28;91306;-82
2022/11/12 05:46:56;;;;;;;29.83;11.55;;;8.80;99.90;;;;;;4894363;28;91806;-83
2022/11/12 05:49:21;;;;;;;34.03;12.32;;;8.70;99.90;;;;;;4897120;28;91574;-84
2022/11/12 05:51:47;;;;;;;29.13;11.20;;;8.70;99.90;;;;;;4898828;28;92042;-85
2022/11/12 05:54:13;;;;;;;28.23;10.90;;;8.70;99.90;;;;;;4891907;28;91434;-83
2022/11/12 05:56:39;;;;;;;24.73;10.52;;;8.70;99.90;;;;;;4896599;28;91709;-83
2022/11/12 05:59:07;;;;;;;26.52;10.82;;;8.70;99.90;;;;;;4890827;28;93645;-83
2022/11/12 06:01:37;;;;;;;29.35;11.13;;;8.70;99.90;;;;;;4892244;28;93128;-83
2022/11/12 06:04:03;;;;;;;29.90;11.52;;;8.70;99.90;;;;;;4895836;28;91329;-84
2022/11/12 06:06:28;;;;;;;24.58;10.15;;;8.70;99.90;;;;;;4896284;28;92022;-85
2022/11/12 06:08:54;;;;;;;26.50;10.63;;;8.70;99.90;;;;;;4898275;28;91571;-85
2022/11/12 06:11:20;;;;;;;23.13;10.40;;;8.70;99.90;;;;;;4891141;28;92624;-85
2022/11/12 06:13:45;;;;;;;26.20;11.75;;;8.70;99.90;;;;;;4887774;28;91371;-85
2022/11/12 06:16:11;;;;;;;23.63;9.40;;;8.70;99.90;;;;;;4881579;28;90616;-83
2022/11/12 06:18:37;;;;;;;22.83;9.65;;;8.70;99.90;;;;;;4890707;28;92181;-84
2022/11/12 06:21:23;;;;;;;26.15;10.80;;;8.70;99.90;;;;;;4891335;28;91435;-84
2022/11/12 06:23:51;;;;;;;25.50;9.90;;;8.70;99.90;;;;;;4884095;28;92245;-84
2022/11/12 06:26:18;;;;;;;25.58;9.65;;;8.70;99.90;;;;;;4885936;28;91411;-84
2022/11/12 06:28:45;;;;;;;26.75;10.52;;;8.70;99.90;;;;;;4892403;28;91576;-84
2022/11/12 06:31:11;;;;;;;28.25;10.38;;;8.70;99.90;;;;;;4888610;28;91989;-83
2022/11/12 06:33:37;;;;;;;23.38;9.80;;;8.80;99.90;;;;;;4890720;28;92175;-84
2022/11/12 06:36:04;;;;;;;23.10;10.70;;;8.70;99.90;;;;;;4895610;28;91748;-86
2022/11/12 06:38:35;;;;;;;24.00;9.30;;;8.70;99.90;;;;;;4900157;28;92200;-83
2022/11/12 06:41:00;;;;;;;24.80;10.35;;;8.70;99.90;;;;;;4897839;28;92790;-83
2022/11/12 06:43:28;;;;;;;25.58;9.55;;;8.60;99.90;;;;;;4884589;28;91738;-84
2022/11/12 06:45:58;;;;;;;24.90;9.70;;;8.60;99.90;;;;;;4897092;28;91363;-83
2022/11/12 06:48:24;;;;;;;26.45;10.27;;;8.50;99.90;;;;;;4896758;28;93466;-85
2022/11/12 06:50:49;;;;;;;25.90;10.18;;;8.60;99.90;;;;;;4897251;28;94613;-85
2022/11/12 06:53:15;;;;;;;26.83;10.15;;;8.50;99.90;;;;;;4886785;28;92487;-83
2022/11/12 06:55:41;;;;;;;21.38;9.10;;;8.50;99.90;;;;;;4894936;28;91859;-84
2022/11/12 06:58:06;;;;;;;23.05;10.30;;;8.60;99.90;;;;;;4896021;28;92795;-83
2022/11/12 07:00:33;;;;;;;24.33;8.93;;;8.60;99.90;;;;;;4893053;28;92229;-84
2022/11/12 07:02:58;;;;;;;22.80;9.35;;;8.70;99.90;;;;;;4895511;28;91400;-84
2022/11/12 07:05:24;;;;;;;22.98;9.27;;;8.60;99.90;;;;;;4897982;28;91130;-83
2022/11/12 07:07:50;;;;;;;23.77;9.10;;;8.60;99.90;;;;;;4897342;28;92802;-83
2022/11/12 07:10:15;;;;;;;23.17;9.13;;;8.60;99.90;;;;;;4895033;28;91823;-80
2022/11/12 07:12:41;;;;;;;22.23;9.25;;;8.70;99.90;;;;;;4893565;28;93295;-82
2022/11/12 07:15:07;;;;;;;23.90;9.18;;;8.70;99.90;;;;;;4895624;28;91858;-83
2022/11/12 07:17:32;;;;;;;19.38;8.73;;;8.80;99.90;;;;;;4894288;28;92213;-82
2022/11/12 07:19:59;;;;;;;21.58;8.70;;;8.90;99.90;;;;;;4898541;28;91335;-82
2022/11/12 07:22:25;;;;;;;19.25;7.88;;;9.00;99.90;;;;;;4891047;28;91618;-82
2022/11/12 07:24:51;;;;;;;21.45;8.50;;;9.00;99.90;;;;;;4890956;28;91405;-82
2022/11/12 07:27:16;;;;;;;20.52;8.40;;;9.00;99.90;;;;;;4889980;28;92129;-82
2022/11/12 07:29:42;;;;;;;21.92;9.52;;;9.00;99.90;;;;;;4900264;28;93126;-88
2022/11/12 07:32:08;;;;;;;23.60;8.93;;;9.00;99.90;;;;;;4895293;28;92132;-86
2022/11/12 07:34:33;;;;;;;21.50;8.80;;;9.00;99.90;;;;;;4894492;28;92105;-86
2022/11/12 07:36:59;;;;;;;22.17;8.88;;;9.10;99.90;;;;;;4896060;28;92709;-86
2022/11/12 07:39:25;;;;;;;21.45;9.07;;;9.20;99.90;;;;;;4898351;28;92654;-86
2022/11/12 07:41:50;;;;;;;19.30;8.63;;;9.30;99.90;;;;;;4901225;28;91287;-86
2022/11/12 07:44:16;;;;;;;22.50;9.52;;;9.30;99.90;;;;;;4893448;28;91424;-86
2022/11/12 07:46:42;;;;;;;22.52;9.25;;;9.40;99.90;;;;;;4897461;28;91780;-86
2022/11/12 07:49:07;;;;;;;26.27;10.63;;;9.40;99.50;;;;;;4899970;28;91939;-87
2022/11/12 07:51:33;;;;;;;23.25;9.40;;;9.30;99.60;;;;;;4901465;28;91485;-85
2022/11/12 07:53:59;;;;;;;24.17;9.95;;;9.10;99.60;;;;;;4901965;28;91463;-87
2022/11/12 07:56:25;;;;;;;24.08;9.68;;;9.10;99.90;;;;;;4900256;28;92553;-85
2022/11/12 07:58:51;;;;;;;22.45;9.57;;;8.90;99.90;;;;;;4894877;28;91296;-84
2022/11/12 08:01:32;;;;;;;27.58;9.80;;;8.80;99.90;;;;;;4897327;28;92878;-85
2022/11/12 08:03:59;;;;;;;24.00;9.73;;;8.90;99.90;;;;;;4894425;28;91324;-85
2022/11/12 08:06:25;;;;;;;21.05;9.23;;;9.00;99.90;;;;;;4891813;28;91659;-89
2022/11/12 08:08:55;;;;;;;20.48;8.85;;;9.10;99.90;;;;;;4898589;28;91700;-85
2022/11/12 08:11:21;;;;;;;;;;;9.20;99.90;;;;;;4899508;28;91314;-83
2022/11/12 08:13:47;;;;;;;23.42;9.52;;;9.20;99.60;;;;;;4902571;28;91337;-84
2022/11/12 08:16:13;;;;;;;23.05;9.68;;;9.20;99.10;;;;;;4897961;28;92502;-86
2022/11/12 08:18:39;;;;;;;20.05;9.00;;;9.10;99.20;;;;;;4897452;28;91157;-89
2022/11/12 08:21:06;;;;;;;30.52;10.25;;;9.00;99.90;;;;;;4903449;28;91850;-87
2022/11/12 08:23:33;;;;;;;24.15;9.60;;;9.00;99.50;;;;;;4891282;28;91338;-86
2022/11/12 08:26:00;;;;;;;23.63;9.38;;;8.90;99.90;;;;;;4903974;28;93768;-84
2022/11/12 08:28:28;;;;;;;24.38;9.48;;;8.90;99.90;;;;;;4904740;28;93553;-84
2022/11/12 08:30:54;;;;;;;22.15;9.35;;;9.00;99.80;;;;;;4899463;28;91350;-87
2022/11/12 08:33:20;;;;;;;23.08;9.55;;;9.10;99.80;;;;;;4903822;28;91340;-86
2022/11/12 08:35:45;;;;;;;23.30;9.85;;;9.20;99.20;;;;;;4898496;28;92755;-86
2022/11/12 08:38:12;;;;;;;23.52;9.48;;;9.30;99.10;;;;;;4897237;28;92412;-83
2022/11/12 08:40:39;;;;;;;23.55;9.73;;;9.40;99.00;;;;;;4885422;28;91728;-85
2022/11/12 08:43:06;;;;;;;21.98;8.85;;;9.40;98.10;;;;;;4899778;28;91045;-85
2022/11/12 08:45:35;;;;;;;26.75;10.00;;;9.50;98.20;;;;;;4904008;28;92076;-86
2022/11/12 08:48:04;;;;;;;28.40;9.75;;;9.50;97.70;;;;;;4905203;28;92032;-88
2022/11/12 08:50:30;;;;;;;21.30;9.30;;;9.50;97.80;;;;;;4903296;28;92521;-87
2022/11/12 08:53:03;;;;;;;23.23;9.80;;;9.60;97.70;;;;;;4896260;28;91566;-86
2022/11/12 08:55:30;;;;;;;20.17;8.90;;;9.60;97.50;;;;;;4894397;28;92779;-85
2022/11/12 08:58:00;;;;;;;22.20;8.93;;;9.60;97.80;;;;;;4903275;28;92443;-86
2022/11/12 09:00:36;;;;;;;21.42;9.40;;;9.70;97.20;;;;;;4904702;28;91660;-90
2022/11/12 09:03:04;;;;;;;35.97;16.80;;;9.70;97.20;;;;;;4898261;28;91719;-88
2022/11/12 09:05:30;;;;;;;38.42;15.63;;;9.70;96.90;;;;;;4894925;28;92814;-88
2022/11/12 09:07:57;;;;;;;22.27;9.73;;;9.80;96.90;;;;;;4905811;28;92968;-88
2022/11/12 09:10:24;;;;;;;23.60;9.23;;;9.80;97.40;;;;;;4903954;28;91326;-86
2022/11/12 09:12:51;;;;;;;23.02;9.63;;;9.80;96.30;;;;;;4894248;28;91341;-88
2022/11/12 09:15:17;;;;;;;24.00;9.55;;;9.90;96.70;;;;;;4900596;28;93327;-88
2022/11/12 09:17:42;;;;;;;20.23;9.05;;;9.80;96.60;;;;;;4896612;28;92620;-85
2022/11/12 09:20:08;;;;;;;21.60;8.75;;;9.90;96.80;;;;;;4903387;28;91269;-88
2022/11/12 09:22:34;;;;;;;21.73;8.77;;;9.90;96.20;;;;;;4902602;28;91463;-86
2022/11/12 09:25:00;;;;;;;22.98;8.80;;;9.90;96.30;;;;;;4903989;28;92306;-86
2022/11/12 09:27:26;;;;;;;20.33;8.70;;;9.90;96.80;;;;;;4902669;28;91845;-85
2022/11/12 09:29:52;;;;;;;22.02;9.50;;;10.10;96.80;;;;;;4904417;28;91709;-86
2022/11/12 09:32:18;;;;;;;70.55;22.38;;;10.20;96.60;;;;;;4896186;28;90857;-85
2022/11/12 09:34:43;;;;;;;23.80;10.77;;;10.30;96.40;;;;;;4896212;28;92207;-87
2022/11/12 09:37:09;;;;;;;22.38;9.57;;;10.40;95.50;;;;;;4894350;28;92390;-86
2022/11/12 09:39:34;;;;;;;25.65;9.07;;;10.30;95.50;;;;;;4902728;28;92212;-88
2022/11/12 09:42:07;;;;;;;23.50;9.77;;;10.30;95.30;;;;;;4892959;28;91266;-85
2022/11/12 09:44:36;;;;;;;22.00;9.23;;;10.20;95.40;;;;;;4900732;28;92746;-87
2022/11/12 09:47:21;;;;;;;21.60;9.65;;;10.30;95.80;;;;;;4884589;28;92160;-87
2022/11/12 09:49:57;;;;;;;21.80;9.38;;;10.50;95.10;;;;;;4896003;28;91695;-87
2022/11/12 09:52:26;;;;;;;21.65;9.40;;;10.50;94.70;;;;;;4903201;28;91981;-86
2022/11/12 09:55:01;;;;;;;24.65;9.80;;;10.50;95.00;;;;;;4896728;28;92379;-86
2022/11/12 09:57:27;;;;;;;25.40;9.57;;;10.60;94.80;;;;;;4894353;28;91762;-86
2022/11/12 09:59:53;;;;;;;24.23;9.73;;;10.70;94.40;;;;;;4886775;28;91254;-86
2022/11/12 10:02:30;;;;;;;24.08;9.93;;;10.70;94.40;;;;;;4885883;28;91926;-86
2022/11/12 10:04:58;;;;;;;22.48;9.07;;;10.80;94.20;;;;;;4894866;28;93408;-86
2022/11/12 10:07:41;;;;;;;21.90;9.10;;;10.90;93.90;;;;;;4887999;28;92818;-86
2022/11/12 10:10:28;;;;;;;22.83;9.70;;;10.90;93.50;;;;;;4892901;28;91905;-85
2022/11/12 10:13:10;;;;;;;22.05;9.00;;;11.00;93.60;;;;;;4895848;28;91772;-86
2022/11/12 10:19:14;;;;;;;21.15;9.43;;;11.20;93.40;;;;;;4893892;28;91306;-87
2022/11/12 10:21:58;;;;;;;20.75;9.27;;;11.30;92.80;;;;;;4896531;28;93161;-88
2022/11/12 10:24:32;;;;;;;21.08;9.63;;;11.20;92.80;;;;;;4897682;28;90985;-88
2022/11/12 10:26:58;;;;;;;21.10;9.00;;;11.30;93.30;;;;;;4903608;28;92151;-89
2022/11/12 10:29:41;;;;;;;21.33;9.45;;;11.30;92.90;;;;;;4896305;28;92551;-87
2022/11/12 10:32:13;;;;;;;21.33;9.65;;;11.40;92.70;;;;;;4901928;28;92151;-85
2022/11/12 10:34:39;;;;;;;19.48;8.88;;;11.40;93.00;;;;;;4903158;28;91466;-88
2022/11/12 10:37:11;;;;;;;23.17;10.80;;;11.40;92.40;;;;;;4908627;28;91833;-89
2022/11/12 10:39:42;;;;;;;24.38;9.93;;;11.50;92.70;;;;;;4888124;28;92474;-89
2022/11/12 10:42:10;;;;;;;23.77;9.60;;;11.40;92.10;;;;;;4894241;28;91188;-88
2022/11/12 10:44:42;;;;;;;20.98;9.43;;;11.30;92.50;;;;;;4902305;28;91508;-89
2022/11/12 10:47:25;;;;;;;21.20;10.02;;;11.30;92.90;;;;;;4900966;28;91916;-88
2022/11/12 10:50:03;;;;;;;21.17;9.52;;;11.20;93.20;;;;;;4898361;28;91687;-88
2022/11/12 10:52:28;;;;;;;20.25;9.85;;;11.20;93.40;;;;;;4903044;28;91325;-89
2022/11/12 10:55:16;;;;;;;26.00;10.38;;;11.20;93.30;;;;;;4899404;28;91408;-89
2022/11/12 10:57:42;;;;;;;23.77;9.80;;;11.00;93.40;;;;;;4896411;28;93368;-89
2022/11/12 11:00:11;;;;;;;19.00;8.80;;;11.00;93.90;;;;;;4884158;28;92718;-89
2022/11/12 11:02:45;;;;;;;19.23;8.75;;;11.10;93.70;;;;;;4900408;28;93692;-90
2022/11/12 11:05:31;;;;;;;21.98;8.95;;;11.20;93.60;;;;;;4894998;28;91698;-90
2022/11/12 11:07:57;;;;;;;19.33;8.25;;;11.20;93.40;;;;;;4888536;28;92770;-89
2022/11/12 11:10:32;;;;;;;18.25;8.13;;;11.10;92.90;;;;;;4889850;28;91834;-88
2022/11/12 11:13:27;;;;;;;18.55;7.82;;;11.10;93.00;;;;;;4898406;28;91546;-88
2022/11/12 11:16:01;;;;;;;16.98;7.68;;;11.10;93.20;;;;;;4884167;28;90713;-90
2022/11/12 11:18:29;;;;;;;17.00;7.63;;;11.20;93.60;;;;;;4913718;28;92271;-88
2022/11/12 11:21:00;;;;;;;21.15;8.82;;;11.20;93.40;;;;;;4896618;28;92454;-88
2022/11/12 11:23:50;;;;;;;22.90;8.95;;;11.20;93.10;;;;;;4912094;28;92135;-88
2022/11/12 11:26:40;;;;;;;18.60;7.70;;;11.20;93.50;;;;;;4856898;28;91820;-89
2022/11/12 11:29:22;;;;;;;18.17;8.23;;;11.30;93.10;;;;;;4904931;28;92137;-88
2022/11/12 11:31:59;;;;;;;19.00;8.20;;;11.30;92.70;;;;;;4907812;28;91882;-87
2022/11/12 11:34:27;;;;;;;19.23;8.30;;;11.30;93.10;;;;;;4905158;28;91206;-86
2022/11/12 11:37:13;;;;;;;17.38;8.10;;;11.50;92.60;;;;;;4899074;28;91596;-86
2022/11/12 11:39:45;;;;;;;16.17;8.00;;;11.50;92.20;;;;;;4888106;28;92295;-86
2022/11/12 11:42:10;;;;;;;18.95;9.30;;;11.50;92.30;;;;;;4898800;28;91786;-86
2022/11/12 11:44:44;;;;;;;20.35;8.93;;;11.50;92.20;;;;;;4900763;28;91750;-86
2022/11/12 11:47:25;;;;;;;16.85;8.20;;;11.50;92.50;;;;;;4890104;28;92082;-86
2022/11/12 11:50:03;;;;;;;17.20;7.65;;;11.50;92.30;;;;;;4888549;28;93060;-85
2022/11/12 11:52:49;;;;;;;18.33;7.85;;;11.50;92.80;;;;;;4893882;28;93060;-87
2022/11/12 11:55:32;;;;;;;15.93;7.50;;;11.50;92.10;;;;;;4860384;28;91291;-87
2022/11/12 11:58:13;;;;;;;17.20;7.88;;;11.50;91.90;;;;;;4903268;28;91100;-84
2022/11/12 12:00:44;;;;;;;18.75;8.55;;;11.60;92.10;;;;;;4898747;28;92937;-84
2022/11/12 12:03:18;;;;;;;19.05;8.48;;;11.50;92.30;;;;;;4899872;28;91731;-83
2022/11/12 12:06:02;;;;;;;16.92;8.10;;;11.60;92.30;;;;;;4900981;28;91757;-84
2022/11/12 12:08:58;;;;;;;15.52;7.53;;;11.60;91.70;;;;;;4887987;28;91147;-85
2022/11/12 12:11:42;;;;;;;16.42;7.57;;;11.70;91.90;;;;;;4888299;28;92765;-85
2022/11/12 12:14:26;;;;;;;18.42;8.23;;;11.70;92.00;;;;;;4890374;28;91769;-84
2022/11/12 12:17:06;;;;;;;18.92;8.73;;;11.80;91.50;;;;;;4901688;28;92239;-84
2022/11/12 12:19:53;;;;;;;18.60;8.05;;;11.80;91.20;;;;;;4883550;28;91207;-85
2022/11/12 12:22:30;;;;;;;18.08;7.60;;;11.80;91.30;;;;;;4890342;28;92747;-82
2022/11/12 12:25:04;;;;;;;16.80;8.10;;;11.80;91.40;;;;;;4890015;28;92201;-85
2022/11/12 12:27:41;;;;;;;18.48;8.35;;;11.90;91.10;;;;;;4892811;28;91298;-84
2022/11/12 12:30:21;;;;;;;17.48;8.80;;;12.00;91.20;;;;;;4886988;28;92053;-84
2022/11/12 12:33:16;;;;;;;19.55;8.38;;;12.00;91.00;;;;;;4885152;28;94220;-85
2022/11/12 12:36:18;;;;;;;18.35;9.35;;;12.00;91.00;;;;;;4889571;28;92101;-84
2022/11/12 12:38:50;;;;;;;18.85;8.35;;;11.90;91.10;;;;;;4900328;28;91681;-84
2022/11/12 12:41:19;;;;;;;17.50;7.60;;;11.90;91.20;;;;;;4890713;28;91922;-84
2022/11/12 12:43:47;;;;;;;14.48;7.70;;;11.80;90.90;;;;;;4900115;28;93765;-84
2022/11/12 12:46:15;;;;;;;20.52;9.00;;;11.80;90.70;;;;;;4902430;28;93058;-84
2022/11/12 12:48:44;;;;;;;14.90;7.28;;;11.80;91.30;;;;;;4900689;28;91368;-85
2022/11/12 12:51:10;;;;;;;16.38;7.68;;;11.80;90.70;;;;;;4901317;28;91416;-84
2022/11/12 12:53:36;;;;;;;18.25;8.75;;;11.80;90.90;;;;;;4903123;28;94236;-85
2022/11/12 12:56:26;;;;;;;21.63;9.05;;;11.60;91.40;;;;;;4899663;28;91982;-85
2022/11/12 12:58:52;;;;;;;19.95;8.40;;;11.60;91.80;;;;;;4894649;28;91442;-85
2022/11/12 13:01:21;;;;;;;14.82;7.15;;;11.60;92.30;;;;;;4901365;28;90912;-84
2022/11/12 13:04:03;;;;;;;15.65;7.75;;;11.60;91.50;;;;;;4906444;28;92030;-83
2022/11/12 13:06:44;;;;;;;13.98;7.38;;;11.70;91.80;;;;;;4901746;28;92461;-85
2022/11/12 13:09:16;;;;;;;15.38;6.90;;;11.60;91.10;;;;;;4907324;28;92245;-85
2022/11/12 13:14:37;;;;;;;14.93;7.43;;;11.50;91.40;;;;;;4894732;28;91624;-84
2022/11/12 13:17:04;;;;;;;16.48;7.65;;;11.50;91.50;;;;;;4908597;28;91816;-84
2022/11/12 13:19:51;;;;;;;23.33;9.98;;;11.50;91.70;;;;;;4891993;28;91576;-85
2022/11/12 13:22:17;;;;;;;23.95;12.07;;;11.50;91.70;;;;;;4892494;28;91845;-85
2022/11/12 13:25:01;;;;;;;18.02;8.23;;;11.50;91.90;;;;;;4901489;28;92852;-84
2022/11/12 13:27:39;;;;;;;15.48;7.68;;;11.50;91.50;;;;;;4897372;28;93403;-84
2022/11/12 13:30:16;;;;;;;18.85;9.27;;;11.50;91.60;;;;;;4900337;28;91243;-83
2022/11/12 13:32:50;;;;;;;14.55;7.22;;;11.50;91.70;;;;;;4890458;28;91701;-86
2022/11/12 13:35:22;;;;;;;19.13;8.70;;;11.50;91.40;;;;;;4897475;28;93327;-84
2022/11/12 13:37:55;;;;;;;16.17;7.90;;;11.50;91.50;;;;;;4901813;28;93099;-84
2022/11/12 13:40:51;;;;;;;16.10;7.78;;;11.50;91.20;;;;;;4895407;28;93047;-85
2022/11/12 13:43:23;;;;;;;;;;;11.50;91.40;;;;;;4891595;28;92108;-84
2022/11/12 13:46:10;;;;;;;16.33;7.53;;;11.50;91.30;;;;;;4898617;28;92271;-84
2022/11/12 13:48:43;;;;;;;16.13;7.70;;;11.50;91.50;;;;;;4893052;28;92415;-85
2022/11/12 13:51:17;;;;;;;17.33;8.00;;;11.30;91.80;;;;;;4894579;28;91706;-85
2022/11/12 13:53:43;;;;;;;15.60;7.65;;;11.30;91.70;;;;;;4902138;28;91191;-85
2022/11/12 13:56:10;;;;;;;15.35;7.35;;;11.30;92.30;;;;;;4894253;28;93960;-85
2022/11/12 13:58:38;;;;;;;16.20;7.13;;;11.30;92.00;;;;;;4895481;28;91760;-85
2022/11/12 14:01:06;;;;;;;16.45;7.63;;;11.40;92.30;;;;;;4891196;28;92784;-84
2022/11/12 14:03:41;;;;;;;15.48;7.35;;;11.30;92.00;;;;;;4893047;28;91383;-85
2022/11/12 14:06:15;;;;;;;18.02;8.38;;;11.40;92.30;;;;;;4896834;28;91711;-85
2022/11/12 14:09:05;;;;;;;18.70;8.25;;;11.40;92.60;;;;;;4899720;28;92311;-85
2022/11/12 14:11:59;;;;;;;17.08;8.10;;;11.40;92.10;;;;;;4897745;28;91814;-85
2022/11/12 14:14:25;;;;;;;18.95;8.52;;;11.40;92.40;;;;;;4874565;28;91714;-85
2022/11/12 14:17:30;;;;;;;16.15;7.97;;;11.40;92.20;;;;;;4900598;28;92691;-85
2022/11/12 14:20:24;;;;;;;17.52;7.75;;;11.40;92.20;;;;;;4897669;28;91944;-85
2022/11/12 14:22:49;;;;;;;16.88;7.82;;;11.20;92.60;;;;;;4895982;28;91362;-85
2022/11/12 14:25:24;;;;;;;16.17;8.15;;;11.10;92.80;;;;;;4894757;28;91385;-83
2022/11/12 14:27:55;;;;;;;19.42;8.25;;;11.20;92.70;;;;;;4896498;28;93782;-83
2022/11/12 14:30:27;;;;;;;16.95;7.80;;;11.20;92.70;;;;;;4899532;28;93148;-83
2022/11/12 14:32:59;;;;;;;17.95;7.35;;;11.20;92.70;;;;;;4896908;28;91276;-87
2022/11/12 14:35:32;;;;;;;14.70;7.20;;;11.20;92.60;;;;;;4895891;28;91332;-85
2022/11/12 14:38:04;;;;;;;16.08;6.95;;;11.30;92.60;;;;;;4898772;28;92865;-85
2022/11/12 14:40:33;;;;;;;15.18;7.15;;;11.30;92.30;;;;;;4900104;28;92424;-80
2022/11/12 14:42:58;;;;;;;14.55;7.28;;;11.30;92.30;;;;;;4901102;28;91327;-82
2022/11/12 14:45:24;;;;;;;16.83;7.47;;;11.20;92.80;;;;;;4894885;28;91084;-83
2022/11/12 14:47:52;;;;;;;16.75;7.95;;;11.20;92.60;;;;;;4901254;28;92766;-84
2022/11/12 14:50:31;;;;;;;16.50;8.52;;;11.30;92.60;;;;;;4902339;28;91915;-84
2022/11/12 14:53:08;;;;;;;18.50;8.07;;;11.30;92.50;;;;;;4887228;28;92159;-85
2022/11/12 14:55:36;;;;;;;16.83;7.68;;;11.30;93.10;;;;;;4892866;28;92005;-85
2022/11/12 14:58:04;;;;;;;18.05;7.88;;;11.20;93.00;;;;;;4900846;28;94614;-84
2022/11/12 15:00:29;;;;;;;14.63;7.07;;;11.30;92.90;;;;;;4899370;28;94881;-88
2022/11/12 15:03:00;;;;;;;14.73;7.57;;;11.30;92.30;;;;;;4893648;28;91759;-87
2022/11/12 15:05:26;;;;;;;17.42;8.00;;;11.20;92.80;;;;;;4903273;28;91146;-86
2022/11/12 15:08:01;;;;;;;20.30;8.77;;;11.10;92.70;;;;;;4902447;28;92489;-86
2022/11/12 15:10:39;;;;;;;19.80;8.98;;;11.10;92.60;;;;;;4902984;28;91912;-87
2022/11/12 15:13:07;;;;;;;17.35;8.32;;;11.10;92.60;;;;;;4892939;28;91888;-87
2022/11/12 15:15:35;;;;;;;14.57;7.07;;;11.10;92.90;;;;;;4900570;28;91303;-87
2022/11/12 15:18:04;;;;;;;17.77;8.55;;;11.10;92.80;;;;;;4889862;28;95307;-87
2022/11/12 15:20:30;;;;;;;15.45;8.05;;;11.10;92.80;;;;;;4884978;28;94736;-87
2022/11/12 15:22:56;;;;;;;19.17;8.63;;;11.00;93.10;;;;;;4891132;28;91979;-86
2022/11/12 15:25:23;;;;;;;16.70;8.10;;;11.00;92.80;;;;;;4899112;28;92806;-86
2022/11/12 15:27:50;;;;;;;16.98;7.63;;;11.00;93.00;;;;;;4894714;28;92468;-87
2022/11/12 15:30:24;;;;;;;18.13;8.23;;;11.00;92.90;;;;;;4888905;28;92076;-86
2022/11/12 15:33:21;;;;;;;17.25;7.70;;;11.00;93.00;;;;;;4891109;28;91422;-85
2022/11/12 15:36:00;;;;;;;16.23;7.70;;;10.90;93.20;;;;;;4895917;28;90433;-85
2022/11/12 15:38:36;;;;;;;17.58;7.63;;;10.90;93.50;;;;;;4899730;28;93151;-86
2022/11/12 15:41:02;;;;;;;18.23;8.32;;;10.90;93.30;;;;;;4902877;28;91694;-86
2022/11/12 15:43:32;;;;;;;18.35;8.82;;;10.80;93.30;;;;;;4899090;28;92754;-85
2022/11/12 15:45:57;;;;;;;21.35;8.57;;;10.70;93.80;;;;;;4895064;28;91642;-86
2022/11/12 15:48:23;;;;;;;21.42;9.65;;;10.70;93.90;;;;;;4897010;28;91756;-84
2022/11/12 15:50:49;;;;;;;20.73;8.88;;;10.60;94.10;;;;;;4894708;28;93179;-86
2022/11/12 15:53:15;;;;;;;17.48;8.80;;;10.60;94.10;;;;;;4901359;28;91155;-86
2022/11/12 15:55:43;;;;;;;21.65;10.68;;;10.50;94.60;;;;;;4894978;28;92392;-86
2022/11/12 15:58:29;;;;;;;18.58;9.38;;;10.60;94.70;;;;;;4883345;28;92369;-85
2022/11/12 16:00:55;;;;;;;17.38;8.75;;;10.60;94.50;;;;;;4892144;28;92451;-85
2022/11/12 16:03:21;;;;;;;19.35;8.93;;;10.60;94.20;;;;;;4896233;28;92062;-86
2022/11/12 16:05:47;;;;;;;20.42;8.55;;;10.60;94.20;;;;;;4900486;28;91360;-85
2022/11/12 16:08:13;;;;;;;18.10;8.32;;;10.60;94.30;;;;;;4897798;28;93277;-86
2022/11/12 16:10:41;;;;;;;16.73;8.35;;;10.60;94.20;;;;;;4901486;28;92863;-87
2022/11/12 16:13:13;;;;;;;18.33;8.02;;;10.60;94.30;;;;;;4890696;28;91252;-84
2022/11/12 16:15:39;;;;;;;20.10;8.70;;;10.60;94.20;;;;;;4890102;28;92167;-85
2022/11/12 16:18:07;;;;;;;18.98;8.88;;;10.50;94.50;;;;;;4902618;28;92776;-86
2022/11/12 16:20:34;;;;;;;19.48;8.88;;;10.50;94.60;;;;;;4900447;28;92271;-86
2022/11/12 16:23:00;;;;;;;18.63;8.45;;;10.40;94.50;;;;;;4902192;28;91206;-86
2022/11/12 16:25:35;;;;;;;21.10;9.13;;;10.50;94.40;;;;;;4906653;28;90535;-85
2022/11/12 16:28:01;;;;;;;16.77;8.43;;;10.50;94.30;;;;;;4900826;28;93871;-85
2022/11/12 16:30:30;;;;;;;19.23;8.35;;;10.50;94.60;;;;;;4900106;28;92210;-84
2022/11/12 16:32:57;;;;;;;18.67;8.80;;;10.50;94.40;;;;;;4901406;28;92338;-85
2022/11/12 16:35:23;;;;;;;22.40;9.45;;;10.50;94.60;;;;;;4903577;28;92365;-86
2022/11/12 16:37:52;;;;;;;19.15;8.88;;;10.50;94.60;;;;;;4891206;28;92340;-85
2022/11/12 16:40:22;;;;;;;20.45;9.35;;;10.50;94.60;;;;;;4902003;28;91656;-84
2022/11/12 16:42:48;;;;;;;19.13;8.98;;;10.50;94.60;;;;;;4901887;28;91369;-85
2022/11/12 16:45:19;;;;;;;19.25;8.35;;;10.50;94.40;;;;;;4899841;28;91384;-86
2022/11/12 16:47:50;;;;;;;18.42;8.65;;;10.30;94.50;;;;;;4901125;28;92829;-87
2022/11/12 16:50:20;;;;;;;21.88;9.85;;;10.20;95.10;;;;;;4897567;28;92556;-86
2022/11/12 16:52:46;;;;;;;;;;;10.20;95.30;;;;;;4894455;28;91381;-87
2022/11/12 16:55:12;;;;;;;19.83;8.98;;;10.30;95.20;;;;;;4894149;28;91304;-86
2022/11/12 16:57:39;;;;;;;21.02;8.70;;;10.30;95.10;;;;;;4898916;28;93600;-86
2022/11/12 17:00:06;;;;;;;18.17;8.20;;;10.30;95.10;;;;;;4904973;28;93459;-86
2022/11/12 17:02:32;;;;;;;17.83;8.93;;;10.30;95.10;;;;;;4903964;28;92611;-86
2022/11/12 17:05:02;;;;;;;21.30;9.35;;;10.30;95.20;;;;;;4900713;28;91344;-87
2022/11/12 17:07:27;;;;;;;20.35;9.27;;;10.30;95.20;;;;;;4888586;28;91919;-86
2022/11/12 17:09:53;;;;;;;18.23;8.45;;;10.20;95.30;;;;;;4902319;28;92287;-87
2022/11/12 17:12:19;;;;;;;21.83;9.43;;;10.20;95.40;;;;;;4891279;28;91728;-87
2022/11/12 17:14:45;;;;;;;20.23;8.48;;;10.20;95.50;;;;;;4895229;28;90596;-86
2022/11/12 17:17:11;;;;;;;20.40;8.98;;;10.20;95.70;;;;;;4903115;28;91780;-86
2022/11/12 17:19:36;;;;;;;20.85;9.18;;;10.20;95.60;;;;;;4895265;28;92491;-86
2022/11/12 17:22:02;;;;;;;24.92;10.93;;;10.30;95.70;;;;;;4902334;28;92826;-86
2022/11/12 17:24:28;;;;;;;21.52;10.52;;;10.30;95.80;;;;;;4886501;28;91597;-86
2022/11/12 17:26:53;;;;;;;23.10;10.73;;;10.30;95.70;;;;;;4894257;28;96276;-86